Time;durP1;ratioP1;P1;durP2;ratioP2;P2;SDS_P1;SDS_P2;PMS_P1;PMS_P2;Temp;Humidity;BMP_temperature;BMP_pressure;BME280_temperature;BME280_humidity;BME280_pressure;Samples;Min_cycle;Max_cycle;Signal;HPM_P1;HPM_P2
2023/07/13 00:02:02;;;;;;;2.03;1.13;;;17.40;90.80;;;;;;6153934;23;20025;-86
2023/07/13 00:04:50;;;;;;;3.60;1.30;;;17.40;98.90;;;;;;6153334;23;20334;-84
2023/07/13 00:07:37;;;;;;;2.00;1.30;;;17.30;99.90;;;;;;6154341;23;20033;-86
2023/07/13 00:10:24;;;;;;;2.72;1.70;;;17.20;99.90;;;;;;6153323;23;20337;-85
2023/07/13 00:13:11;;;;;;;3.67;1.70;;;17.20;99.90;;;;;;6154007;23;20030;-86
2023/07/13 00:15:59;;;;;;;2.35;1.20;;;17.10;99.90;;;;;;6164012;23;20056;-86
2023/07/13 00:18:47;;;;;;;5.40;1.48;;;17.10;99.90;;;;;;6158863;23;20025;-85
2023/07/13 00:21:36;;;;;;;5.93;1.48;;;17.10;99.90;;;;;;6163467;23;20032;-85
2023/07/13 00:24:24;;;;;;;3.40;1.67;;;17.10;99.90;;;;;;6155780;23;20029;-86
2023/07/13 00:27:12;;;;;;;5.68;1.48;;;17.10;99.90;;;;;;6155293;23;20029;-83
2023/07/13 00:29:59;;;;;;;5.93;1.52;;;17.00;99.90;;;;;;6154414;23;20029;-86
2023/07/13 00:32:46;;;;;;;4.28;1.60;;;17.00;99.90;;;;;;6153660;23;20026;-85
2023/07/13 00:35:34;;;;;;;6.68;1.52;;;17.00;99.90;;;;;;6153855;23;20056;-86
2023/07/13 00:38:23;;;;;;;3.95;1.55;;;16.90;99.90;;;;;;6153802;23;20444;-83
2023/07/13 00:41:13;;;;;;;4.90;1.42;;;16.90;99.90;;;;;;6153185;23;20036;-85
2023/07/13 00:44:00;;;;;;;3.90;1.50;;;16.90;99.90;;;;;;6153836;23;20026;-85
2023/07/13 00:46:48;;;;;;;3.50;1.30;;;16.90;99.90;;;;;;6153541;23;20035;-85
2023/07/13 00:49:39;;;;;;;6.88;1.67;;;16.90;99.90;;;;;;6154151;23;20025;-85
2023/07/13 00:52:29;;;;;;;4.32;1.08;;;16.80;99.90;;;;;;6154120;23;20025;-86
2023/07/13 00:55:17;;;;;;;2.17;1.40;;;16.80;99.90;;;;;;6154396;23;20329;-84
2023/07/13 00:58:06;;;;;;;8.70;1.60;;;16.90;99.90;;;;;;6154136;23;20044;-85
2023/07/13 01:00:53;;;;;;;2.88;1.35;;;17.00;99.90;;;;;;6153766;23;20036;-84
2023/07/13 01:03:44;;;;;;;6.63;1.60;;;17.00;99.90;;;;;;6156707;23;20022;-85
2023/07/13 01:06:31;;;;;;;2.67;1.33;;;17.00;99.90;;;;;;6157066;23;20431;-85
2023/07/13 01:09:20;;;;;;;3.78;1.25;;;17.00;98.70;;;;;;6159763;23;20029;-86
2023/07/13 01:12:10;;;;;;;6.25;1.25;;;17.00;99.90;;;;;;6159195;23;20101;-86
2023/07/13 01:15:01;;;;;;;2.33;1.27;;;17.00;99.00;;;;;;6156395;23;20025;-85
2023/07/13 01:17:51;;;;;;;3.53;1.15;;;17.00;98.40;;;;;;6155610;23;20092;-83
2023/07/13 01:20:39;;;;;;;2.63;1.17;;;17.00;97.80;;;;;;6153873;23;20033;-85
2023/07/13 01:23:27;;;;;;;3.50;1.40;;;17.00;99.70;;;;;;6153572;23;20440;-87
2023/07/13 01:26:18;;;;;;;4.22;1.42;;;17.00;99.90;;;;;;6154763;23;20026;-86
2023/07/13 01:29:05;;;;;;;8.82;1.83;;;16.80;99.90;;;;;;6152684;23;20459;-84
2023/07/13 01:31:52;;;;;;;6.70;1.60;;;16.70;99.90;;;;;;6173923;23;20026;-85
2023/07/13 01:34:42;;;;;;;3.90;1.52;;;16.60;99.90;;;;;;6171918;23;20156;-86
2023/07/13 01:37:33;;;;;;;1.48;0.90;;;16.50;99.90;;;;;;6153301;23;20025;-86
2023/07/13 01:40:23;;;;;;;3.15;1.30;;;16.40;99.90;;;;;;6153942;23;20164;-86
2023/07/13 01:43:11;;;;;;;4.70;1.40;;;16.40;99.90;;;;;;6173263;23;20029;-85
2023/07/13 01:45:58;;;;;;;3.15;1.30;;;16.40;99.90;;;;;;6154136;23;20313;-84
2023/07/13 01:49:05;;;;;;;3.08;1.30;;;16.30;99.90;;;;;;6154506;23;20040;-86
2023/07/13 01:51:53;;;;;;;3.03;1.40;;;16.20;99.90;;;;;;6154616;23;20032;-85
2023/07/13 01:54:42;;;;;;;4.68;1.45;;;16.10;99.90;;;;;;6154187;23;20029;-84
2023/07/13 01:57:30;;;;;;;6.60;1.40;;;16.10;99.90;;;;;;6155549;23;20452;-86
2023/07/13 02:00:18;;;;;;;6.43;1.67;;;15.90;99.90;;;;;;6155667;23;20048;-86
2023/07/13 02:03:06;;;;;;;5.43;1.45;;;15.90;99.90;;;;;;6154296;23;20025;-85
2023/07/13 02:05:55;;;;;;;4.18;1.38;;;15.80;99.90;;;;;;6175697;23;20033;-86
2023/07/13 02:08:42;;;;;;;2.78;1.38;;;15.80;99.90;;;;;;6155473;23;20025;-86
2023/07/13 02:11:33;;;;;;;3.95;1.30;;;15.70;99.90;;;;;;6155845;23;20029;-88
2023/07/13 02:14:23;;;;;;;3.80;1.27;;;15.60;99.90;;;;;;6157756;23;20025;-86
2023/07/13 02:17:10;;;;;;;4.80;1.52;;;15.50;99.90;;;;;;6157063;23;20761;-86
2023/07/13 02:19:58;;;;;;;3.88;1.77;;;15.40;99.90;;;;;;6155769;23;20096;-85
2023/07/13 02:22:45;;;;;;;3.47;1.50;;;15.20;99.90;;;;;;6154118;23;20043;-85
2023/07/13 02:25:32;;;;;;;3.50;1.70;;;15.00;99.90;;;;;;6156497;23;20409;-86
2023/07/13 02:28:20;;;;;;;4.68;1.50;;;14.90;99.90;;;;;;6157106;23;20026;-86
2023/07/13 02:31:10;;;;;;;5.32;1.70;;;14.80;99.90;;;;;;6174440;23;20313;-83
2023/07/13 02:33:59;;;;;;;4.30;1.77;;;14.70;99.90;;;;;;6155891;23;20029;-85
2023/07/13 02:36:47;;;;;;;8.18;1.70;;;14.70;99.90;;;;;;6156977;23;20036;-85
2023/07/13 02:39:36;;;;;;;4.18;1.55;;;14.60;99.90;;;;;;6156148;23;20040;-83
2023/07/13 02:42:23;;;;;;;4.03;1.70;;;14.60;99.90;;;;;;6156225;23;20036;-84
2023/07/13 02:45:13;;;;;;;3.38;1.77;;;14.60;99.90;;;;;;6174362;23;20054;-84
2023/07/13 02:48:03;;;;;;;10.38;1.95;;;14.50;99.90;;;;;;6155969;23;20034;-84
2023/07/13 02:50:50;;;;;;;2.75;1.50;;;14.50;99.90;;;;;;6153600;23;20065;-86
2023/07/13 02:53:38;;;;;;;5.25;1.58;;;14.60;99.90;;;;;;6154481;23;20022;-86
2023/07/13 02:56:27;;;;;;;4.75;1.58;;;14.70;99.90;;;;;;6154997;23;20029;-86
2023/07/13 02:59:14;;;;;;;5.72;1.85;;;14.60;99.90;;;;;;6155592;23;20029;-85
2023/07/13 03:02:02;;;;;;;7.00;2.10;;;14.80;99.90;;;;;;6154929;23;20116;-87
2023/07/13 03:04:50;;;;;;;3.95;1.77;;;14.90;99.90;;;;;;6156019;23;20043;-85
2023/07/13 03:07:38;;;;;;;5.88;1.83;;;15.00;99.90;;;;;;6156295;23;20302;-84
2023/07/13 03:10:25;;;;;;;4.82;1.73;;;15.10;99.90;;;;;;6153578;23;20041;-85
2023/07/13 03:13:15;;;;;;;5.93;1.60;;;15.20;99.90;;;;;;6155763;23;20036;-84
2023/07/13 03:16:02;;;;;;;4.00;1.65;;;15.30;99.90;;;;;;6155526;23;20044;-83
2023/07/13 03:18:52;;;;;;;5.30;1.63;;;15.40;99.90;;;;;;6156245;23;20040;-86
2023/07/13 03:21:39;;;;;;;4.57;1.58;;;15.40;99.90;;;;;;6155171;23;20021;-84
2023/07/13 03:24:27;;;;;;;4.00;1.65;;;15.40;99.90;;;;;;6157235;23;20026;-83
2023/07/13 03:27:17;;;;;;;4.57;1.83;;;15.40;99.90;;;;;;6155480;23;20025;-86
2023/07/13 03:30:05;;;;;;;4.78;1.85;;;15.50;99.90;;;;;;6155109;23;20294;-85
2023/07/13 03:32:55;;;;;;;3.00;1.60;;;15.60;99.90;;;;;;6155686;23;20022;-85
2023/07/13 03:35:42;;;;;;;6.72;2.03;;;15.60;99.90;;;;;;6157340;23;20024;-86
2023/07/13 03:38:29;;;;;;;2.97;1.60;;;15.60;99.90;;;;;;6155437;23;20394;-83
2023/07/13 03:41:19;;;;;;;7.15;1.60;;;15.60;99.90;;;;;;6174489;23;20053;-84
2023/07/13 03:44:09;;;;;;;3.53;1.88;;;15.60;99.90;;;;;;6156152;23;20029;-85
2023/07/13 03:46:56;;;;;;;2.70;1.42;;;15.60;99.90;;;;;;6157589;23;20025;-84
2023/07/13 03:49:45;;;;;;;12.57;1.95;;;15.60;99.90;;;;;;6155674;23;20028;-86
2023/07/13 03:52:35;;;;;;;3.90;1.67;;;15.50;99.90;;;;;;6157153;23;20075;-86
2023/07/13 03:55:22;;;;;;;5.43;2.03;;;15.50;99.90;;;;;;6157070;23;20391;-84
2023/07/13 03:58:28;;;;;;;4.82;1.98;;;15.40;99.90;;;;;;6155967;23;20060;-83
2023/07/13 04:01:19;;;;;;;9.05;2.60;;;15.30;99.90;;;;;;6154776;23;20061;-85
2023/07/13 04:04:23;;;;;;;4.55;1.95;;;15.20;99.90;;;;;;6156401;23;20025;-84
2023/07/13 04:07:13;;;;;;;6.38;1.83;;;15.20;99.90;;;;;;6156066;23;20028;-84
2023/07/13 04:10:02;;;;;;;3.47;2.00;;;15.30;99.90;;;;;;6155928;23;20028;-86
2023/07/13 04:12:52;;;;;;;5.03;1.95;;;15.40;99.90;;;;;;6173560;23;20021;-85
2023/07/13 04:15:40;;;;;;;3.42;1.70;;;15.40;1.00;;;;;;6155146;23;20310;-86
2023/07/13 04:18:27;;;;;;;2.80;1.90;;;15.40;1.00;;;;;;6155279;23;20025;-84
2023/07/13 04:21:15;;;;;;;8.05;1.83;;;15.40;99.90;;;;;;6154945;23;20025;-86
2023/07/13 04:24:03;;;;;;;3.55;1.75;;;15.30;99.90;;;;;;6152536;23;20445;-85
2023/07/13 04:26:51;;;;;;;3.85;2.05;;;15.40;99.90;;;;;;6153331;23;20025;-86
2023/07/13 04:29:38;;;;;;;3.83;1.90;;;15.30;99.90;;;;;;6159479;23;20425;-84
2023/07/13 04:32:25;;;;;;;6.57;1.83;;;15.20;99.90;;;;;;6162615;23;20041;-86
2023/07/13 04:35:14;;;;;;;4.93;1.80;;;15.20;99.90;;;;;;6157571;23;20056;-84
2023/07/13 04:38:03;;;;;;;8.00;2.00;;;15.10;99.90;;;;;;6155787;23;20108;-84
2023/07/13 04:40:53;;;;;;;3.55;1.90;;;15.10;99.90;;;;;;6154165;23;20025;-86
2023/07/13 04:43:41;;;;;;;4.35;1.85;;;15.00;99.90;;;;;;6154577;23;20063;-86
2023/07/13 04:46:29;;;;;;;3.08;2.03;;;15.00;1.00;;;;;;6155346;23;20022;-85
2023/07/13 04:49:19;;;;;;;7.90;2.20;;;15.10;1.00;;;;;;6159124;23;20026;-83
2023/07/13 04:52:07;;;;;;;5.85;2.10;;;15.10;1.00;;;;;;6163518;23;20034;-85
2023/07/13 04:54:59;;;;;;;5.60;2.03;;;15.20;1.00;;;;;;6154432;23;20314;-86
2023/07/13 04:57:47;;;;;;;5.25;1.88;;;15.30;1.00;;;;;;6155510;23;20314;-85
2023/07/13 05:00:37;;;;;;;6.22;1.80;;;15.40;1.00;;;;;;6156478;23;20021;-85
2023/07/13 05:03:24;;;;;;;5.15;2.03;;;15.50;1.00;;;;;;6155483;23;20299;-85
2023/07/13 05:06:11;;;;;;;4.03;2.50;;;15.60;1.00;;;;;;6158014;23;20032;-85
2023/07/13 05:08:59;;;;;;;4.82;2.05;;;15.80;1.00;;;;;;6154453;23;20133;-84
2023/07/13 05:11:46;;;;;;;3.22;1.73;;;15.90;1.00;;;;;;6154572;23;20034;-84
2023/07/13 05:14:36;;;;;;;5.85;1.90;;;16.10;1.00;;;;;;6153843;23;20025;-86
2023/07/13 05:17:23;;;;;;;6.18;2.75;;;16.30;1.00;;;;;;6154901;23;20382;-86
2023/07/13 05:20:10;;;;;;;4.68;2.40;;;16.50;1.00;;;;;;6183237;23;20084;-85
2023/07/13 05:22:58;;;;;;;7.60;2.05;;;16.60;99.90;;;;;;6169742;23;20028;-86
2023/07/13 05:25:45;;;;;;;3.20;1.80;;;16.70;99.90;;;;;;6187498;23;20341;-87
2023/07/13 05:28:33;;;;;;;4.65;1.60;;;16.70;99.90;;;;;;6164595;23;20022;-86
2023/07/13 05:31:20;;;;;;;5.00;1.67;;;16.90;99.90;;;;;;6162765;23;20040;-88
2023/07/13 05:34:09;;;;;;;6.93;1.90;;;17.10;99.90;;;;;;6159977;23;20137;-88
2023/07/13 05:36:58;;;;;;;7.63;2.17;;;17.20;99.90;;;;;;6177145;23;20060;-87
2023/07/13 05:39:46;;;;;;;6.68;1.80;;;17.20;99.90;;;;;;6159677;23;20089;-86
2023/07/13 05:42:35;;;;;;;6.82;1.80;;;17.00;99.90;;;;;;6156274;23;20488;-86
2023/07/13 05:45:37;;;;;;;7.68;1.70;;;16.90;99.90;;;;;;6156108;23;20037;-88
2023/07/13 05:48:25;;;;;;;8.20;1.67;;;16.80;99.90;;;;;;6152818;23;20082;-89
2023/07/13 05:51:21;;;;;;;3.25;1.70;;;16.80;99.90;;;;;;6156016;23;20096;-89
2023/07/13 05:54:09;;;;;;;7.55;1.88;;;16.70;99.90;;;;;;6165398;23;20105;-88
2023/07/13 05:56:59;;;;;;;4.97;1.95;;;16.80;99.90;;;;;;6156855;23;20033;-89
2023/07/13 05:59:48;;;;;;;4.85;1.85;;;16.90;99.90;;;;;;6174214;23;20034;-85
2023/07/13 06:02:35;;;;;;;2.83;1.80;;;17.00;99.90;;;;;;6156904;23;20421;-89
2023/07/13 06:05:23;;;;;;;2.38;1.40;;;17.10;99.90;;;;;;6156512;23;20032;-86
2023/07/13 06:08:10;;;;;;;8.27;3.67;;;17.20;99.90;;;;;;6157454;23;20029;-88
2023/07/13 06:11:07;;;;;;;3.88;1.83;;;17.30;99.90;;;;;;6155647;23;20036;-88
2023/07/13 06:13:54;;;;;;;10.13;2.17;;;17.20;99.90;;;;;;6156887;23;20306;-90
2023/07/13 06:16:45;;;;;;;5.35;2.03;;;17.20;99.90;;;;;;6154157;23;20039;-87
2023/07/13 06:19:35;;;;;;;4.85;1.65;;;17.20;99.90;;;;;;6153423;23;20156;-88
2023/07/13 06:22:22;;;;;;;4.18;1.80;;;17.40;99.90;;;;;;6155273;23;20430;-91
2023/07/13 06:25:09;;;;;;;4.20;1.60;;;17.60;99.90;;;;;;6153114;23;20421;-87
2023/07/13 06:28:04;;;;;;;7.05;1.70;;;17.90;99.90;;;;;;6155873;23;20421;-87
2023/07/13 06:30:51;;;;;;;3.38;1.70;;;18.00;91.20;;;;;;6173727;23;20033;-87
2023/07/13 06:33:39;;;;;;;5.18;2.13;;;18.30;33.90;;;;;;6155642;23;20125;-85
2023/07/13 06:36:26;;;;;;;9.18;2.17;;;18.30;26.70;;;;;;6154703;23;20480;-87
2023/07/13 06:39:13;;;;;;;11.43;1.88;;;18.30;17.70;;;;;;6154842;23;20033;-86
2023/07/13 06:42:00;;;;;;;6.43;1.90;;;18.30;1.40;;;;;;6151860;23;20026;-86
2023/07/13 06:44:48;;;;;;;3.22;1.67;;;18.40;1.00;;;;;;6156960;23;20082;-89
2023/07/13 06:47:37;;;;;;;3.78;1.85;;;18.60;1.00;;;;;;6157645;23;20026;-89
2023/07/13 06:50:24;;;;;;;5.95;1.88;;;18.60;1.00;;;;;;6154902;23;20025;-88
2023/07/13 06:53:22;;;;;;;4.25;1.52;;;18.70;1.00;;;;;;6156332;23;20033;-88
2023/07/13 06:56:10;;;;;;;3.42;1.60;;;18.80;1.00;;;;;;6155084;23;20029;-86
2023/07/13 06:58:58;;;;;;;5.50;2.00;;;19.00;1.00;;;;;;6155080;23;20029;-89
2023/07/13 07:01:47;;;;;;;3.13;1.27;;;19.20;1.00;;;;;;6156482;23;20029;-85
2023/07/13 07:04:37;;;;;;;3.90;1.30;;;19.40;1.00;;;;;;6157231;23;20017;-88
2023/07/13 07:07:25;;;;;;;9.00;3.65;;;19.70;1.00;;;;;;6157343;23;20040;-85
2023/07/13 07:10:12;;;;;;;4.78;1.50;;;20.00;1.00;;;;;;6154336;23;20046;-88
2023/07/13 07:13:00;;;;;;;4.75;1.40;;;20.30;1.00;;;;;;6177449;23;20110;-86
2023/07/13 07:15:48;;;;;;;4.10;1.33;;;20.50;1.00;;;;;;6157703;23;20067;-84
2023/07/13 07:18:36;;;;;;;4.38;1.23;;;20.80;1.00;;;;;;6155020;23;20037;-86
2023/07/13 07:21:25;;;;;;;1.83;1.10;;;21.20;1.00;;;;;;6155079;23;20025;-88
2023/07/13 07:24:13;;;;;;;4.53;1.20;;;21.70;1.00;;;;;;6155118;23;20330;-86
2023/07/13 07:27:00;;;;;;;4.75;1.30;;;22.00;1.00;;;;;;6155019;23;20025;-87
2023/07/13 07:29:50;;;;;;;4.43;1.45;;;22.10;1.00;;;;;;6155398;23;20030;-86
2023/07/13 07:33:01;;;;;;;4.28;1.40;;;22.30;1.00;;;;;;6154183;23;20029;-88
2023/07/13 07:35:54;;;;;;;3.63;1.10;;;22.20;1.00;;;;;;6155891;23;20033;-86
2023/07/13 07:38:44;;;;;;;;;;;22.30;1.00;;;;;;6154151;23;20029;-88
2023/07/13 07:41:31;;;;;;;4.03;1.10;;;22.40;1.00;;;;;;6154791;23;19917;-87
2023/07/13 07:44:22;;;;;;;3.15;0.90;;;22.30;1.00;;;;;;6157251;23;20425;-88
2023/07/13 07:47:12;;;;;;;2.65;1.08;;;22.80;1.00;;;;;;6155028;23;20037;-89
2023/07/13 07:49:59;;;;;;;3.05;1.10;;;23.40;1.00;;;;;;6155766;23;20101;-87
2023/07/13 07:52:51;;;;;;;8.30;1.40;;;23.90;1.00;;;;;;6176850;23;20033;-87
2023/07/13 07:55:38;;;;;;;2.30;0.85;;;24.50;1.00;;;;;;6154918;23;20052;-83
2023/07/13 07:58:28;;;;;;;2.42;1.02;;;25.00;1.00;;;;;;6153534;23;20420;-87
2023/07/13 08:01:18;;;;;;;8.90;1.67;;;25.10;1.00;;;;;;6155427;23;20025;-85
2023/07/13 08:04:09;;;;;;;2.67;1.00;;;25.20;1.00;;;;;;6157401;23;20036;-89
2023/07/13 08:07:16;;;;;;;3.72;0.90;;;25.60;1.00;;;;;;6170652;23;20072;-89
2023/07/13 08:10:10;;;;;;;4.95;1.13;;;25.80;1.00;;;;;;6155914;23;20028;-88
2023/07/13 08:13:00;;;;;;;6.50;1.67;;;26.20;1.00;;;;;;6152792;23;20120;-85
2023/07/13 08:15:50;;;;;;;3.35;1.02;;;26.30;1.00;;;;;;6155183;23;20064;-86
2023/07/13 08:18:38;;;;;;;2.58;1.27;;;25.60;1.00;;;;;;6153527;23;20033;-86
2023/07/13 08:21:26;;;;;;;1.38;0.70;;;25.60;1.00;;;;;;6155673;23;20077;-85
2023/07/13 08:24:13;;;;;;;2.88;1.00;;;25.30;1.00;;;;;;6155753;23;20048;-85
2023/07/13 08:27:00;;;;;;;5.32;1.17;;;25.00;1.00;;;;;;6154573;23;20040;-89
2023/07/13 08:29:51;;;;;;;5.47;1.23;;;24.90;1.00;;;;;;6154872;23;20022;-89
2023/07/13 08:32:40;;;;;;;4.57;1.00;;;25.10;1.00;;;;;;6157269;23;20030;-86
2023/07/13 08:35:28;;;;;;;5.85;1.00;;;25.40;1.00;;;;;;6155363;23;20045;-86
2023/07/13 08:38:17;;;;;;;5.65;1.20;;;25.70;1.00;;;;;;6152957;23;20034;-88
2023/07/13 08:41:18;;;;;;;5.30;0.80;;;26.10;1.00;;;;;;6153441;23;20493;-86
2023/07/13 08:44:18;;;;;;;4.70;1.15;;;27.00;1.00;;;;;;6153470;23;20445;-88
2023/07/13 08:47:06;;;;;;;6.88;1.15;;;26.90;1.00;;;;;;6153855;23;20373;-87
2023/07/13 08:49:57;;;;;;;5.88;1.13;;;26.50;1.00;;;;;;6156788;23;20117;-89
2023/07/13 08:52:50;;;;;;;2.60;1.10;;;27.10;1.00;;;;;;6153839;23;20032;-88
2023/07/13 08:55:39;;;;;;;3.80;1.33;;;27.20;1.00;;;;;;6152966;23;20034;-87
2023/07/13 08:58:28;;;;;;;6.05;0.95;;;26.50;1.00;;;;;;6155260;23;20029;-88
2023/07/13 09:01:47;;;;;;;5.45;1.13;;;25.80;1.00;;;;;;6156562;23;20188;-88
2023/07/13 09:04:49;;;;;;;4.60;1.20;;;25.90;1.00;;;;;;6158154;23;20033;-89
2023/07/13 09:08:00;;;;;;;4.55;0.80;;;26.90;1.00;;;;;;6154860;23;20029;-90
2023/07/13 09:11:40;;;;;;;5.47;1.05;;;28.10;1.00;;;;;;6154054;23;20049;-88
2023/07/13 09:14:33;;;;;;;5.00;0.95;;;28.30;1.00;;;;;;6160470;23;20037;-89
2023/07/13 09:17:38;;;;;;;2.80;1.08;;;28.80;1.00;;;;;;6153041;23;20405;-88
2023/07/13 09:20:36;;;;;;;7.00;1.00;;;29.90;1.00;;;;;;6155099;23;20033;-88
2023/07/13 09:23:25;;;;;;;6.78;1.00;;;29.20;1.00;;;;;;6154571;23;20022;-87
2023/07/13 09:26:22;;;;;;;5.50;1.17;;;27.60;1.00;;;;;;6156980;23;20025;-89
2023/07/13 09:29:26;;;;;;;4.53;1.20;;;26.50;1.00;;;;;;6154395;23;20025;-89
2023/07/13 09:32:21;;;;;;;2.50;1.05;;;26.30;1.00;;;;;;6155925;23;20041;-89
2023/07/13 09:35:20;;;;;;;3.58;1.30;;;25.90;1.00;;;;;;6154239;23;20128;-86
2023/07/13 09:38:14;;;;;;;3.63;1.00;;;26.00;1.00;;;;;;6173328;23;20029;-88
2023/07/13 09:41:17;;;;;;;4.22;0.90;;;26.00;1.00;;;;;;6153348;23;20048;-88
2023/07/13 09:44:13;;;;;;;3.85;1.20;;;26.90;1.00;;;;;;6153791;23;20595;-90
2023/07/13 09:47:02;;;;;;;4.97;1.10;;;27.70;1.00;;;;;;6153319;23;20057;-89
2023/07/13 09:49:56;;;;;;;2.72;0.90;;;28.00;1.00;;;;;;6154925;23;20030;-88
2023/07/13 09:52:50;;;;;;;3.85;0.90;;;27.50;1.00;;;;;;6155319;23;20689;-90
2023/07/13 09:55:41;;;;;;;6.20;1.40;;;27.10;1.00;;;;;;6157723;23;20029;-90
2023/07/13 09:58:32;;;;;;;7.65;1.05;;;27.60;1.00;;;;;;6151999;23;20594;-89
2023/07/13 10:01:38;;;;;;;3.45;1.00;;;28.60;1.00;;;;;;6155267;23;20294;-89
2023/07/13 10:04:31;;;;;;;3.53;1.40;;;29.80;1.00;;;;;;6153531;23;20485;-87
2023/07/13 10:07:22;;;;;;;4.57;0.98;;;30.00;1.00;;;;;;6156186;23;20131;-89
2023/07/13 10:10:19;;;;;;;11.07;1.48;;;30.20;1.00;;;;;;6155602;23;20033;-83
2023/07/13 10:13:25;;;;;;;3.10;1.08;;;29.80;1.00;;;;;;6153719;23;20318;-88
2023/07/13 10:16:21;;;;;;;4.13;1.05;;;29.60;1.00;;;;;;6151848;23;20036;-90
2023/07/13 10:19:21;;;;;;;2.33;0.73;;;30.10;1.00;;;;;;6153222;23;20549;-89
2023/07/13 10:22:24;;;;;;;4.18;1.13;;;29.90;1.00;;;;;;6154583;23;20025;-87
2023/07/13 10:25:24;;;;;;;3.20;1.00;;;29.70;1.00;;;;;;6154772;23;20049;-88
2023/07/13 10:28:23;;;;;;;5.90;1.30;;;29.50;1.00;;;;;;6154192;23;20021;-86
2023/07/13 10:31:16;;;;;;;3.58;1.13;;;29.40;1.00;;;;;;6154534;23;20029;-88
2023/07/13 10:34:06;;;;;;;3.50;1.35;;;29.30;1.00;;;;;;6156058;23;20045;-86
2023/07/13 10:36:54;;;;;;;2.58;0.90;;;29.60;1.00;;;;;;6156409;23;20029;-88
2023/07/13 10:39:41;;;;;;;4.30;1.20;;;29.70;1.00;;;;;;6156645;23;20297;-89
2023/07/13 10:42:47;;;;;;;6.35;1.33;;;28.90;1.00;;;;;;6163335;23;20037;-89
2023/07/13 10:45:38;;;;;;;2.78;0.93;;;27.80;1.00;;;;;;6165207;23;20052;-89
2023/07/13 10:48:26;;;;;;;6.28;1.20;;;26.60;1.00;;;;;;6157141;23;20029;-89
2023/07/13 10:51:17;;;;;;;5.55;1.30;;;25.90;1.00;;;;;;6154270;23;20026;-87
2023/07/13 10:54:18;;;;;;;2.17;0.98;;;25.70;1.00;;;;;;6155456;23;20041;-89
2023/07/13 10:57:21;;;;;;;4.25;1.13;;;26.40;1.00;;;;;;6155239;23;20035;-90
2023/07/13 11:00:40;;;;;;;;;;;;;;;;;;;;;
2023/07/13 11:04:27;;;;;;;4.07;0.90;;;28.00;1.00;;;;;;6154585;23;20025;-89
2023/07/13 11:07:25;;;;;;;2.42;1.05;;;30.20;1.00;;;;;;6134901;23;20335;-88
2023/07/13 11:10:57;;;;;;;3.28;0.85;;;31.20;1.00;;;;;;6158019;23;20030;-89
2023/07/13 11:13:47;;;;;;;2.40;0.80;;;30.80;1.00;;;;;;6155942;23;20049;-90
2023/07/13 11:16:49;;;;;;;3.40;0.95;;;31.90;1.00;;;;;;6155654;23;20029;-87
2023/07/13 11:19:50;;;;;;;3.40;1.08;;;33.10;1.00;;;;;;6155900;23;20092;-89
2023/07/13 11:22:48;;;;;;;2.88;1.02;;;34.00;1.00;;;;;;6158523;23;20029;-90
2023/07/13 11:25:37;;;;;;;3.95;0.77;;;31.90;1.00;;;;;;6159085;23;20025;-91
2023/07/13 11:28:30;;;;;;;3.05;1.02;;;30.30;1.00;;;;;;6154978;23;20057;-88
2023/07/13 11:31:22;;;;;;;6.50;1.27;;;30.60;1.00;;;;;;6155465;23;20034;-90
2023/07/13 11:34:17;;;;;;;3.08;1.13;;;31.30;1.00;;;;;;6156415;23;20039;-88
2023/07/13 11:37:14;;;;;;;3.92;0.90;;;30.80;1.00;;;;;;6152096;23;20107;-88
2023/07/13 11:40:02;;;;;;;7.25;1.13;;;29.70;1.00;;;;;;6154089;23;20108;-87
2023/07/13 11:42:51;;;;;;;3.40;1.00;;;30.80;1.00;;;;;;6153641;23;20077;-87
2023/07/13 11:45:45;;;;;;;3.65;1.30;;;32.60;1.00;;;;;;6153228;23;20116;-88
2023/07/13 11:48:36;;;;;;;1.88;0.93;;;33.90;1.00;;;;;;6154188;23;20032;-88
2023/07/13 11:51:37;;;;;;;4.00;1.10;;;34.50;1.00;;;;;;6157182;23;20029;-85
2023/07/13 11:54:50;;;;;;;4.45;1.10;;;34.00;1.00;;;;;;6156236;23;20036;-88
2023/07/13 11:57:46;;;;;;;3.90;1.00;;;31.00;1.00;;;;;;6155639;23;20037;-89
2023/07/13 12:00:38;;;;;;;2.88;0.85;;;31.60;1.00;;;;;;6158235;23;20034;-92
2023/07/13 12:03:29;;;;;;;1.98;1.00;;;32.10;1.00;;;;;;6159254;23;20509;-90
2023/07/13 12:06:30;;;;;;;2.70;0.95;;;30.80;99.90;;;;;;6164928;23;20022;-91
2023/07/13 12:09:22;;;;;;;3.67;0.85;;;30.50;1.00;;;;;;6156118;23;20418;-89
2023/07/13 12:12:43;;;;;;;3.38;1.00;;;31.90;99.90;;;;;;6154894;23;20029;-89
2023/07/13 12:15:46;;;;;;;2.42;1.15;;;33.40;99.90;;;;;;6158047;23;20029;-89
2023/07/13 12:18:56;;;;;;;4.60;0.95;;;33.20;99.90;;;;;;6153708;23;20083;-90
2023/07/13 12:22:14;;;;;;;2.58;0.80;;;31.70;99.90;;;;;;6153316;23;20073;-88
2023/07/13 12:25:15;;;;;;;1.67;0.80;;;30.70;1.00;;;;;;6157012;23;20355;-87
2023/07/13 12:28:29;;;;;;;3.17;1.35;;;31.20;99.90;;;;;;6154266;23;20101;-84
2023/07/13 12:31:30;;;;;;;2.35;0.90;;;31.80;99.90;;;;;;6156100;23;20107;-87
2023/07/13 12:34:22;;;;;;;4.68;0.90;;;33.20;99.90;;;;;;6154754;23;20045;-85
2023/07/13 12:37:14;;;;;;;3.13;1.00;;;33.10;99.90;;;;;;6154762;23;20040;-86
2023/07/13 12:40:04;;;;;;;2.38;0.90;;;31.70;99.90;;;;;;6154388;23;20064;-86
2023/07/13 12:42:52;;;;;;;1.55;0.82;;;32.20;99.90;;;;;;6152404;23;20021;-85
2023/07/13 12:45:54;;;;;;;6.82;1.45;;;32.00;99.90;;;;;;6154332;23;20039;-85
2023/07/13 12:48:42;;;;;;;4.45;1.17;;;32.30;99.90;;;;;;6154784;23;20428;-87
2023/07/13 12:51:39;;;;;;;4.00;0.90;;;32.80;99.90;;;;;;6153725;23;20112;-84
2023/07/13 12:54:30;;;;;;;5.38;1.05;;;32.30;99.90;;;;;;6154981;23;20032;-87
2023/07/13 12:57:22;;;;;;;4.35;1.02;;;32.70;99.90;;;;;;6154558;23;20054;-85
2023/07/13 13:00:32;;;;;;;;;;;31.30;99.90;;;;;;6155581;23;20413;-87
2023/07/13 13:03:32;;;;;;;5.70;1.00;;;31.80;99.90;;;;;;6155539;23;20297;-89
2023/07/13 13:06:21;;;;;;;1.45;0.63;;;32.60;99.90;;;;;;6154760;23;20393;-88
2023/07/13 13:09:15;;;;;;;3.38;0.80;;;31.80;99.90;;;;;;6156768;23;20021;-86
2023/07/13 13:12:02;;;;;;;1.92;1.00;;;31.80;99.90;;;;;;6154543;23;20037;-84
2023/07/13 13:14:50;;;;;;;3.25;0.90;;;31.30;99.90;;;;;;6153447;23;20022;-87
2023/07/13 13:17:38;;;;;;;3.83;1.00;;;30.50;99.90;;;;;;6173050;23;20033;-85
2023/07/13 13:20:25;;;;;;;1.80;1.00;;;30.00;99.90;;;;;;6153720;23;20121;-86
2023/07/13 13:23:17;;;;;;;7.68;1.35;;;29.70;99.90;;;;;;6155249;23;20029;-85
2023/07/13 13:26:15;;;;;;;2.45;1.05;;;29.80;99.90;;;;;;6157422;23;20068;-85
2023/07/13 13:29:14;;;;;;;4.10;1.70;;;30.30;99.90;;;;;;6152645;23;20031;-86
2023/07/13 13:32:05;;;;;;;4.85;1.10;;;30.10;99.90;;;;;;6154188;23;20026;-85
2023/07/13 13:34:54;;;;;;;2.27;0.90;;;30.30;99.90;;;;;;6172086;23;20034;-86
2023/07/13 13:37:44;;;;;;;3.00;1.08;;;30.40;99.90;;;;;;6153962;23;20026;-86
2023/07/13 13:40:31;;;;;;;3.63;1.27;;;31.00;99.90;;;;;;6156903;23;20076;-88
2023/07/13 13:43:26;;;;;;;4.65;1.25;;;31.80;99.90;;;;;;6156443;23;20027;-87
2023/07/13 13:46:22;;;;;;;3.28;1.00;;;31.40;99.90;;;;;;6154429;23;20394;-86
2023/07/13 13:49:16;;;;;;;1.30;0.90;;;31.60;99.90;;;;;;6153763;23;20053;-85
2023/07/13 13:52:03;;;;;;;5.63;1.00;;;32.80;99.90;;;;;;6154220;23;20039;-85
2023/07/13 13:54:55;;;;;;;3.78;0.98;;;33.10;99.90;;;;;;6155605;23;20418;-85
2023/07/13 13:57:43;;;;;;;;;;;31.50;99.90;;;;;;6156187;23;20056;-87
2023/07/13 14:00:30;;;;;;;6.95;1.10;;;30.50;99.90;;;;;;6175792;23;19920;-84
2023/07/13 14:03:20;;;;;;;4.57;1.30;;;31.10;99.90;;;;;;6157197;23;20165;-85
2023/07/13 14:06:12;;;;;;;2.53;1.17;;;31.10;99.90;;;;;;6156512;23;20413;-86
2023/07/13 14:09:00;;;;;;;2.65;1.20;;;30.20;99.90;;;;;;6157881;23;20343;-86
2023/07/13 14:11:50;;;;;;;7.05;1.38;;;31.10;99.90;;;;;;6156723;23;20187;-87
2023/07/13 14:14:40;;;;;;;6.35;1.08;;;32.40;99.90;;;;;;6155745;23;20382;-88
2023/07/13 14:17:28;;;;;;;4.57;1.10;;;33.60;99.90;;;;;;6154827;23;20031;-85
2023/07/13 14:20:17;;;;;;;3.20;1.00;;;34.20;99.90;;;;;;6157345;23;20119;-87
2023/07/13 14:23:07;;;;;;;2.85;0.90;;;34.90;99.90;;;;;;6175439;23;20160;-85
2023/07/13 14:25:54;;;;;;;2.05;0.88;;;34.40;99.90;;;;;;6158280;23;20041;-85
2023/07/13 14:28:46;;;;;;;2.83;1.00;;;34.00;99.90;;;;;;6159176;23;20029;-86
2023/07/13 14:31:33;;;;;;;1.52;0.98;;;34.50;99.90;;;;;;6158730;23;20116;-85
2023/07/13 14:34:22;;;;;;;3.95;1.00;;;34.10;99.90;;;;;;6174143;23;20076;-83
2023/07/13 14:37:16;;;;;;;6.18;1.33;;;33.00;99.90;;;;;;6173412;23;20025;-86
2023/07/13 14:40:21;;;;;;;4.88;1.38;;;31.20;99.90;;;;;;6168611;23;20029;-85
2023/07/13 14:43:15;;;;;;;2.35;1.08;;;29.50;99.90;;;;;;6168041;23;20049;-86
2023/07/13 14:46:04;;;;;;;1.95;0.75;;;29.10;99.90;;;;;;6161830;23;20048;-86
2023/07/13 14:48:51;;;;;;;2.65;1.10;;;30.00;99.90;;;;;;6156414;23;20052;-85
2023/07/13 14:51:39;;;;;;;3.22;0.85;;;30.20;99.90;;;;;;6155089;23;20043;-87
2023/07/13 14:54:27;;;;;;;3.03;0.98;;;31.70;99.90;;;;;;6156382;23;20029;-86
2023/07/13 14:57:17;;;;;;;5.25;2.25;;;32.00;99.90;;;;;;6158201;23;20032;-85
2023/07/13 15:00:12;;;;;;;3.55;0.98;;;31.70;99.90;;;;;;6156163;23;20044;-85
2023/07/13 15:03:01;;;;;;;4.15;1.00;;;32.30;99.90;;;;;;6159690;23;20057;-84